createdAt,value
2023-05-14T00:00:21.942Z,94650.00
2023-05-14T00:01:21.746Z,94652.00
2023-05-14T00:02:21.888Z,94650.00
2023-05-14T00:03:21.797Z,94648.00
2023-05-14T00:04:21.873Z,94652.00
2023-05-14T00:05:21.805Z,94650.00
2023-05-14T00:06:21.855Z,94650.00
2023-05-14T00:07:21.937Z,94654.00
2023-05-14T00:08:21.931Z,94650.00
2023-05-14T00:09:21.957Z,94652.00
2023-05-14T00:10:22.247Z,94652.00
2023-05-14T00:11:22.299Z,94652.00
2023-05-14T00:12:22.043Z,94650.00
2023-05-14T00:13:22.070Z,94650.00
2023-05-14T00:14:22.076Z,94648.00
2023-05-14T00:15:22.116Z,94646.00
2023-05-14T00:16:22.196Z,94646.00
2023-05-14T00:17:22.202Z,94646.00
2023-05-14T00:18:22.243Z,94646.00
2023-05-14T00:19:22.304Z,94646.00
2023-05-14T00:20:22.464Z,94646.00
2023-05-14T00:21:22.325Z,94644.00
2023-05-14T00:22:22.368Z,94646.00
2023-05-14T00:23:22.387Z,94640.00
2023-05-14T00:24:22.435Z,94642.00
2023-05-14T00:25:22.510Z,94640.00
2023-05-14T00:26:22.497Z,94638.00
2023-05-14T00:27:22.559Z,94637.00
2023-05-14T00:28:22.492Z,94637.00
2023-05-14T00:29:22.534Z,94637.00
2023-05-14T00:30:22.827Z,94635.00
2023-05-14T00:31:22.685Z,94637.00
2023-05-14T00:32:22.697Z,94638.00
2023-05-14T00:33:22.656Z,94637.00
2023-05-14T00:34:22.729Z,94633.00
2023-05-14T00:35:22.813Z,94635.00
2023-05-14T00:36:22.831Z,94638.00
2023-05-14T00:37:22.880Z,94638.00
2023-05-14T00:38:22.860Z,94637.00
2023-05-14T00:39:22.887Z,94637.00
2023-05-14T00:40:23.235Z,94637.00
2023-05-14T00:41:22.953Z,94637.00
2023-05-14T00:42:22.974Z,94640.00
2023-05-14T00:43:23.005Z,94640.00
2023-05-14T00:44:23.019Z,94642.00
2023-05-14T00:45:23.010Z,94642.00
2023-05-14T00:46:23.080Z,94640.00
2023-05-14T00:47:23.139Z,94642.00
2023-05-14T00:48:23.093Z,94638.00
2023-05-14T00:49:23.104Z,94640.00
2023-05-14T00:50:23.443Z,94640.00
2023-05-14T00:51:23.167Z,94642.00
2023-05-14T00:52:23.162Z,94637.00
2023-05-14T00:53:23.154Z,94633.00
2023-05-14T00:54:23.180Z,94638.00
2023-05-14T00:55:23.212Z,94635.00
2023-05-14T00:56:23.222Z,94635.00
2023-05-14T00:57:23.220Z,94638.00
2023-05-14T00:58:23.263Z,94637.00
2023-05-14T00:59:23.267Z,94637.00
2023-05-14T01:00:23.654Z,94635.00
2023-05-14T01:01:23.357Z,94633.00
2023-05-14T01:02:23.397Z,94638.00
2023-05-14T01:03:23.498Z,94635.00
2023-05-14T01:04:23.436Z,94635.00
2023-05-14T01:05:23.474Z,94638.00
2023-05-14T01:06:23.479Z,94637.00
2023-05-14T01:07:23.535Z,94638.00
2023-05-14T01:08:23.518Z,94633.00
2023-05-14T01:09:23.551Z,94637.00
2023-05-14T01:10:23.776Z,94635.00
2023-05-14T01:11:23.625Z,94633.00
2023-05-14T01:12:23.625Z,94633.00
2023-05-14T01:13:23.665Z,94633.00
2023-05-14T01:14:23.626Z,94633.00
2023-05-14T01:15:23.681Z,94633.00
2023-05-14T01:16:23.742Z,94623.00
2023-05-14T01:17:23.692Z,94623.00
2023-05-14T01:18:23.685Z,94633.00
2023-05-14T01:19:23.748Z,94631.00
2023-05-14T01:20:23.892Z,94619.00
2023-05-14T01:21:23.764Z,94621.00
2023-05-14T01:22:23.772Z,94631.00
2023-05-14T01:23:23.792Z,94623.00
2023-05-14T01:24:23.825Z,94631.00
2023-05-14T01:25:23.839Z,94623.00
2023-05-14T01:26:23.838Z,94633.00
2023-05-14T01:27:23.898Z,94631.00
2023-05-14T01:28:23.909Z,94631.00
2023-05-14T01:29:23.955Z,94631.00
2023-05-14T01:30:24.163Z,94631.00
2023-05-14T01:31:24.022Z,94621.00
2023-05-14T01:32:24.084Z,94631.00
2023-05-14T01:33:24.029Z,94631.00
2023-05-14T01:34:24.047Z,94631.00
2023-05-14T01:35:24.067Z,94631.00
2023-05-14T01:36:24.066Z,94633.00
2023-05-14T01:37:24.046Z,94631.00
2023-05-14T01:38:24.081Z,94623.00
2023-05-14T01:39:24.093Z,94631.00
2023-05-14T01:40:24.404Z,94631.00
2023-05-14T01:41:24.162Z,94633.00
2023-05-14T01:42:24.218Z,94633.00
2023-05-14T01:43:24.323Z,94633.00
2023-05-14T01:44:24.354Z,94633.00
2023-05-14T01:45:24.288Z,94633.00
2023-05-14T01:46:24.348Z,94623.00
2023-05-14T01:47:24.348Z,94633.00
2023-05-14T01:48:24.333Z,94621.00
2023-05-14T01:49:24.408Z,94623.00
2023-05-14T01:50:24.588Z,94633.00
2023-05-14T01:51:24.516Z,94633.00
2023-05-14T01:52:24.468Z,94635.00
2023-05-14T01:53:24.517Z,94631.00
2023-05-14T01:54:24.525Z,94623.00
2023-05-14T01:55:24.585Z,94633.00
2023-05-14T01:56:24.563Z,94631.00
2023-05-14T01:57:24.651Z,94621.00
2023-05-14T01:58:24.627Z,94621.00
2023-05-14T01:59:24.633Z,94619.00
2023-05-14T02:00:24.938Z,94619.00
2023-05-14T02:01:24.739Z,94621.00
2023-05-14T02:02:24.794Z,94621.00
2023-05-14T02:03:24.798Z,94619.00
2023-05-14T02:04:24.849Z,94619.00
2023-05-14T02:05:24.835Z,94617.00
2023-05-14T02:06:24.845Z,94617.00
2023-05-14T02:07:24.850Z,94617.00
2023-05-14T02:08:24.889Z,94615.00
2023-05-14T02:09:24.973Z,94617.00
2023-05-14T02:10:25.174Z,94621.00
2023-05-14T02:11:25.045Z,94621.00
2023-05-14T02:12:25.053Z,94613.00
2023-05-14T02:13:25.091Z,94613.00
2023-05-14T02:14:25.101Z,94615.00
2023-05-14T02:15:25.134Z,94615.00
2023-05-14T02:16:25.272Z,94613.00
2023-05-14T02:17:25.244Z,94611.00
2023-05-14T02:18:25.278Z,94609.00
2023-05-14T02:19:25.285Z,94607.00
2023-05-14T02:20:25.555Z,94607.00
2023-05-14T02:21:25.403Z,94605.00
2023-05-14T02:22:25.426Z,94603.00
2023-05-14T02:23:31.278Z,94601.00
2023-05-14T02:24:26.456Z,94601.00
2023-05-14T02:25:25.435Z,94601.00
2023-05-14T02:26:25.462Z,94601.00
2023-05-14T02:27:25.435Z,94601.00
2023-05-14T02:28:25.449Z,94599.00
2023-05-14T02:29:25.422Z,94601.00
2023-05-14T02:30:25.611Z,94599.00
2023-05-14T02:31:25.452Z,94603.00
2023-05-14T02:32:25.519Z,94599.00
2023-05-14T02:33:25.414Z,94597.00
2023-05-14T02:34:25.406Z,94597.00
2023-05-14T02:35:25.404Z,94597.00
2023-05-14T02:36:25.442Z,94599.00
2023-05-14T02:37:25.469Z,94597.00
2023-05-14T02:38:25.488Z,94595.00
2023-05-14T02:39:25.516Z,94593.00
2023-05-14T02:40:25.737Z,94593.00
2023-05-14T02:41:25.532Z,94595.00
2023-05-14T02:42:25.579Z,94591.00
2023-05-14T02:43:25.584Z,94591.00
2023-05-14T02:44:25.661Z,94595.00
2023-05-14T02:45:25.672Z,94587.00
2023-05-14T02:46:25.759Z,94589.00
2023-05-14T02:47:25.862Z,94585.00
2023-05-14T02:48:25.752Z,94584.00
2023-05-14T02:49:25.802Z,94587.00
2023-05-14T02:50:25.991Z,94585.00
2023-05-14T02:51:25.794Z,94584.00
2023-05-14T02:52:25.816Z,94585.00
2023-05-14T02:53:25.835Z,94587.00
2023-05-14T02:54:25.849Z,94582.00
2023-05-14T02:55:25.865Z,94580.00
2023-05-14T02:56:25.874Z,94582.00
2023-05-14T02:57:25.913Z,94584.00
2023-05-14T02:58:28.286Z,94582.00
2023-05-14T02:59:25.956Z,94585.00
2023-05-14T03:00:26.152Z,94582.00
2023-05-14T03:01:25.891Z,94582.00
2023-05-14T03:02:26.007Z,94582.00
2023-05-14T03:03:25.874Z,94580.00
2023-05-14T03:04:25.896Z,94580.00
2023-05-14T03:05:25.891Z,94578.00
2023-05-14T03:06:25.867Z,94576.00
2023-05-14T03:07:25.845Z,94576.00
2023-05-14T03:08:25.855Z,94576.00
2023-05-14T03:09:25.919Z,94576.00
2023-05-14T03:10:26.111Z,94576.00
2023-05-14T03:11:25.891Z,94576.00
2023-05-14T03:12:25.893Z,94580.00
2023-05-14T03:13:25.847Z,94578.00
2023-05-14T03:14:25.846Z,94578.00
2023-05-14T03:15:25.859Z,94582.00
2023-05-14T03:16:25.843Z,94580.00
2023-05-14T03:17:25.833Z,94578.00
2023-05-14T03:18:25.900Z,94578.00
2023-05-14T03:19:25.825Z,94574.00
2023-05-14T03:20:25.894Z,94572.00
2023-05-14T03:21:25.782Z,94574.00
2023-05-14T03:22:25.769Z,94572.00
2023-05-14T03:23:25.798Z,94570.00
2023-05-14T03:24:25.756Z,94574.00
2023-05-14T03:25:25.732Z,94574.00
2023-05-14T03:26:25.741Z,94572.00
2023-05-14T03:27:25.734Z,94568.00
2023-05-14T03:28:25.733Z,94572.00
2023-05-14T03:29:25.739Z,94570.00
2023-05-14T03:30:26.006Z,94570.00
2023-05-14T03:31:25.776Z,94570.00
2023-05-14T03:32:25.675Z,94568.00
2023-05-14T03:33:25.689Z,94572.00
2023-05-14T03:34:25.666Z,94570.00
2023-05-14T03:35:25.679Z,94570.00
2023-05-14T03:36:25.687Z,94572.00
2023-05-14T03:37:25.647Z,94568.00
2023-05-14T03:38:25.631Z,94566.00
2023-05-14T03:39:25.657Z,94568.00
2023-05-14T03:40:25.819Z,94568.00
2023-05-14T03:41:25.632Z,94574.00
2023-05-14T03:42:25.626Z,94576.00
2023-05-14T03:43:25.629Z,94580.00
2023-05-14T03:44:25.615Z,94574.00
2023-05-14T03:45:25.595Z,94574.00
2023-05-14T03:46:25.588Z,94576.00
2023-05-14T03:47:25.642Z,94572.00
2023-05-14T03:48:25.666Z,94574.00
2023-05-14T03:49:25.590Z,94576.00
2023-05-14T03:50:25.812Z,94580.00
2023-05-14T03:51:25.556Z,94574.00
2023-05-14T03:52:25.573Z,94578.00
2023-05-14T03:53:25.563Z,94574.00
2023-05-14T03:54:25.581Z,94582.00
2023-05-14T03:55:25.584Z,94580.00
2023-05-14T03:56:25.617Z,94580.00
2023-05-14T03:57:25.659Z,94584.00
2023-05-14T03:58:25.669Z,94580.00
2023-05-14T03:59:25.769Z,94580.00
2023-05-14T04:00:26.266Z,94580.00
2023-05-14T04:01:25.822Z,94578.00
2023-05-14T04:02:25.995Z,94582.00
2023-05-14T04:03:26.048Z,94580.00
2023-05-14T04:04:25.971Z,94582.00
2023-05-14T04:05:25.917Z,94580.00
2023-05-14T04:06:25.951Z,94584.00
2023-05-14T04:07:26.018Z,94582.00
2023-05-14T04:08:26.057Z,94584.00
2023-05-14T04:09:26.035Z,94576.00
2023-05-14T04:10:26.076Z,94578.00
2023-05-14T04:11:26.095Z,94576.00
2023-05-14T04:12:26.132Z,94574.00
2023-05-14T04:13:26.210Z,94576.00
2023-05-14T04:14:26.239Z,94572.00
2023-05-14T04:15:26.215Z,94576.00
2023-05-14T04:16:26.291Z,94572.00
2023-05-14T04:17:26.476Z,94570.00
2023-05-14T04:18:26.418Z,94568.00
2023-05-14T04:19:26.353Z,94572.00
2023-05-14T04:20:26.398Z,94570.00
2023-05-14T04:21:26.404Z,94570.00
2023-05-14T04:22:26.410Z,94568.00
2023-05-14T04:23:26.429Z,94568.00
2023-05-14T04:24:26.473Z,94568.00
2023-05-14T04:25:26.473Z,94564.00
2023-05-14T04:26:26.527Z,94562.00
2023-05-14T04:27:26.518Z,94562.00
2023-05-14T04:28:26.562Z,94564.00
2023-05-14T04:29:26.567Z,94564.00
2023-05-14T04:30:26.620Z,94564.00
2023-05-14T04:31:26.642Z,94560.00
2023-05-14T04:32:26.643Z,94562.00
2023-05-14T04:33:26.657Z,94562.00
2023-05-14T04:34:26.707Z,94566.00
2023-05-14T04:35:26.752Z,94562.00
2023-05-14T04:36:26.749Z,94564.00
2023-05-14T04:37:26.789Z,94564.00
2023-05-14T04:38:26.825Z,94568.00
2023-05-14T04:39:26.845Z,94568.00
2023-05-14T04:40:27.176Z,94568.00
2023-05-14T04:41:26.927Z,94570.00
2023-05-14T04:42:26.932Z,94570.00
2023-05-14T04:43:27.010Z,94576.00
2023-05-14T04:44:27.061Z,94572.00
2023-05-14T04:45:27.044Z,94570.00
2023-05-14T04:46:27.175Z,94568.00
2023-05-14T04:47:27.158Z,94568.00
2023-05-14T04:48:27.137Z,94570.00
2023-05-14T04:49:27.136Z,94568.00
2023-05-14T04:50:27.193Z,94570.00
2023-05-14T04:51:27.222Z,94566.00
2023-05-14T04:52:27.288Z,94566.00
2023-05-14T04:53:27.322Z,94566.00
2023-05-14T04:54:27.469Z,94568.00
2023-05-14T04:55:27.438Z,94568.00
2023-05-14T04:56:27.437Z,94568.00
2023-05-14T04:57:27.431Z,94568.00
2023-05-14T04:58:27.436Z,94568.00
2023-05-14T04:59:27.438Z,94566.00
2023-05-14T05:00:27.534Z,94566.00
2023-05-14T05:01:27.606Z,94564.00
2023-05-14T05:02:27.663Z,94570.00
2023-05-14T05:03:27.656Z,94568.00
2023-05-14T05:04:27.600Z,94570.00
2023-05-14T05:05:27.658Z,94570.00
2023-05-14T05:06:27.648Z,94572.00
2023-05-14T05:07:27.704Z,94574.00
2023-05-14T05:08:27.674Z,94576.00
2023-05-14T05:09:27.694Z,94576.00
2023-05-14T05:10:27.745Z,94578.00
2023-05-14T05:11:27.794Z,94578.00
2023-05-14T05:12:27.845Z,94576.00
2023-05-14T05:13:27.843Z,94582.00
2023-05-14T05:14:27.870Z,94578.00
2023-05-14T05:15:27.907Z,94578.00
2023-05-14T05:16:27.979Z,94574.00
2023-05-14T05:17:27.938Z,94574.00
2023-05-14T05:18:27.996Z,94574.00
2023-05-14T05:19:39.545Z,94572.00
2023-05-14T05:20:28.936Z,94576.00
2023-05-14T05:21:28.005Z,94572.00
2023-05-14T05:22:27.922Z,94572.00
2023-05-14T05:23:27.898Z,94574.00
2023-05-14T05:24:27.911Z,94570.00
2023-05-14T05:25:27.935Z,94572.00
2023-05-14T05:26:27.891Z,94576.00
2023-05-14T05:27:27.913Z,94576.00
2023-05-14T05:28:27.888Z,94576.00
2023-05-14T05:29:27.899Z,94576.00
2023-05-14T05:30:27.905Z,94574.00
2023-05-14T05:31:27.925Z,94576.00
2023-05-14T05:32:27.927Z,94578.00
2023-05-14T05:33:27.873Z,94574.00
2023-05-14T05:34:27.906Z,94574.00
2023-05-14T05:35:27.871Z,94574.00
2023-05-14T05:36:27.832Z,94578.00
2023-05-14T05:37:27.881Z,94574.00
2023-05-14T05:38:27.912Z,94574.00
2023-05-14T05:39:27.919Z,94574.00
2023-05-14T05:40:27.984Z,94572.00
2023-05-14T05:41:28.015Z,94576.00
2023-05-14T05:42:28.052Z,94574.00
2023-05-14T05:43:28.136Z,94574.00
2023-05-14T05:44:28.196Z,94572.00
2023-05-14T05:45:28.191Z,94570.00
2023-05-14T05:46:28.293Z,94568.00
2023-05-14T05:47:28.380Z,94568.00
2023-05-14T05:48:28.343Z,94568.00
2023-05-14T05:49:28.376Z,94568.00
2023-05-14T05:50:28.412Z,94570.00
2023-05-14T05:51:28.442Z,94568.00
2023-05-14T05:52:28.519Z,94568.00
2023-05-14T05:53:28.567Z,94570.00
2023-05-14T05:54:28.569Z,94572.00
2023-05-14T05:55:28.598Z,94570.00
2023-05-14T05:56:28.684Z,94566.00
2023-05-14T05:57:28.660Z,94566.00
2023-05-14T05:58:28.653Z,94568.00
2023-05-14T05:59:28.669Z,94568.00
2023-05-14T06:00:28.714Z,94564.00
2023-05-14T06:01:28.750Z,94566.00
2023-05-14T06:02:28.831Z,94560.00
2023-05-14T06:03:28.828Z,94562.00
2023-05-14T06:04:28.874Z,94558.00
2023-05-14T06:05:28.963Z,94558.00
2023-05-14T06:06:28.955Z,94558.00
2023-05-14T06:07:28.914Z,94550.00
2023-05-14T06:08:28.961Z,94550.00
2023-05-14T06:09:29.017Z,94552.00
2023-05-14T06:10:29.085Z,94548.00
2023-05-14T06:11:29.042Z,94552.00
2023-05-14T06:12:29.084Z,94550.00
2023-05-14T06:13:29.135Z,94556.00
2023-05-14T06:14:29.181Z,94554.00
2023-05-14T06:15:29.205Z,94556.00
2023-05-14T06:16:29.270Z,94552.00
2023-05-14T06:17:29.296Z,94548.00
2023-05-14T06:18:29.328Z,94546.00
2023-05-14T06:19:29.345Z,94546.00
2023-05-14T06:20:29.414Z,94546.00
2023-05-14T06:21:29.421Z,94544.00
2023-05-14T06:22:29.449Z,94544.00
2023-05-14T06:23:29.438Z,94544.00
2023-05-14T06:24:29.436Z,94542.00
2023-05-14T06:25:29.484Z,94542.00
2023-05-14T06:26:29.517Z,94546.00
2023-05-14T06:27:29.546Z,94542.00
2023-05-14T06:28:29.542Z,94540.00
2023-05-14T06:29:29.587Z,94542.00
2023-05-14T06:30:29.572Z,94542.00
2023-05-14T06:31:29.641Z,94542.00
2023-05-14T06:32:29.663Z,94540.00
2023-05-14T06:33:29.707Z,94542.00
2023-05-14T06:34:29.667Z,94540.00
2023-05-14T06:35:29.705Z,94538.00
2023-05-14T06:36:29.754Z,94538.00
2023-05-14T06:37:29.701Z,94537.00
2023-05-14T06:38:29.716Z,94537.00
2023-05-14T06:39:29.729Z,94535.00
2023-05-14T06:40:29.769Z,94535.00
2023-05-14T06:41:29.780Z,94537.00
2023-05-14T06:42:29.818Z,94537.00
2023-05-14T06:43:29.866Z,94537.00
2023-05-14T06:44:29.920Z,94538.00
2023-05-14T06:45:31.174Z,94538.00
2023-05-14T06:46:29.969Z,94538.00
2023-05-14T06:47:29.978Z,94540.00
2023-05-14T06:48:30.104Z,94537.00
2023-05-14T06:49:30.041Z,94538.00
2023-05-14T06:50:30.070Z,94537.00
2023-05-14T06:51:30.102Z,94537.00
2023-05-14T06:52:30.194Z,94538.00
2023-05-14T06:53:30.237Z,94535.00
2023-05-14T06:54:30.243Z,94537.00
2023-05-14T06:55:30.299Z,94538.00
2023-05-14T06:56:30.346Z,94538.00
2023-05-14T06:57:30.361Z,94538.00
2023-05-14T06:58:30.370Z,94538.00
2023-05-14T06:59:30.449Z,94537.00
2023-05-14T07:00:30.406Z,94538.00
2023-05-14T07:01:30.594Z,94538.00
2023-05-14T07:02:30.607Z,94537.00
2023-05-14T07:03:30.543Z,94537.00
2023-05-14T07:04:30.605Z,94537.00
2023-05-14T07:05:30.636Z,94533.00
2023-05-14T07:06:30.660Z,94533.00
2023-05-14T07:07:30.667Z,94533.00
2023-05-14T07:08:30.654Z,94533.00
2023-05-14T07:09:30.697Z,94531.00
2023-05-14T07:10:30.743Z,94531.00
2023-05-14T07:11:30.766Z,94531.00
2023-05-14T07:12:30.760Z,94529.00
2023-05-14T07:13:30.758Z,94533.00
2023-05-14T07:14:30.805Z,94529.00
2023-05-14T07:15:30.860Z,94533.00
2023-05-14T07:16:30.891Z,94531.00
2023-05-14T07:17:30.986Z,94531.00
2023-05-14T07:18:30.930Z,94529.00
2023-05-14T07:19:30.979Z,94529.00
2023-05-14T07:20:31.000Z,94525.00
2023-05-14T07:21:31.046Z,94523.00
2023-05-14T07:22:31.066Z,94517.00
2023-05-14T07:23:31.132Z,94517.00
2023-05-14T07:24:31.173Z,94515.00
2023-05-14T07:25:31.190Z,94511.00
2023-05-14T07:26:31.308Z,94511.00
2023-05-14T07:27:31.254Z,94509.00
2023-05-14T07:28:31.299Z,94507.00
2023-05-14T07:29:31.355Z,94507.00
2023-05-14T07:30:31.387Z,94505.00
2023-05-14T07:31:31.485Z,94501.00
2023-05-14T07:32:31.494Z,94499.00
2023-05-14T07:33:31.489Z,94499.00
2023-05-14T07:34:31.478Z,94499.00
2023-05-14T07:35:31.560Z,94495.00
2023-05-14T07:36:31.555Z,94493.00
2023-05-14T07:37:31.619Z,94489.00
2023-05-14T07:38:31.685Z,94489.00
2023-05-14T07:39:31.675Z,94489.00
2023-05-14T07:40:31.706Z,94489.00
2023-05-14T07:41:31.712Z,94489.00
2023-05-14T07:42:36.769Z,94487.00
2023-05-14T07:43:32.732Z,94489.00
2023-05-14T07:44:31.716Z,94480.00
2023-05-14T07:45:31.685Z,94482.00
2023-05-14T07:46:31.741Z,94480.00
2023-05-14T07:47:31.742Z,94480.00
2023-05-14T07:48:31.719Z,94478.00
2023-05-14T07:49:31.686Z,94476.00
2023-05-14T07:50:31.690Z,94478.00
2023-05-14T07:51:31.674Z,94480.00
2023-05-14T07:52:31.626Z,94480.00
2023-05-14T07:53:31.677Z,94478.00
2023-05-14T07:54:31.680Z,94478.00
2023-05-14T07:55:31.645Z,94476.00
2023-05-14T07:56:31.645Z,94476.00
2023-05-14T07:57:31.628Z,94476.00
2023-05-14T07:58:31.655Z,94478.00
2023-05-14T07:59:31.721Z,94478.00
2023-05-14T08:00:31.768Z,94472.00
2023-05-14T08:01:31.815Z,94470.00
2023-05-14T08:02:31.959Z,94474.00
2023-05-14T08:03:31.966Z,94468.00
2023-05-14T08:04:31.997Z,94466.00
2023-05-14T08:05:32.004Z,94464.00
2023-05-14T08:06:31.997Z,94464.00
2023-05-14T08:07:32.020Z,94458.00
2023-05-14T08:08:32.064Z,94456.00
2023-05-14T08:09:32.118Z,94456.00
2023-05-14T08:10:32.239Z,94452.00
2023-05-14T08:11:32.233Z,94454.00
2023-05-14T08:12:32.247Z,94452.00
2023-05-14T08:13:32.244Z,94452.00
2023-05-14T08:14:32.301Z,94450.00
2023-05-14T08:15:32.309Z,94446.00
2023-05-14T08:16:32.350Z,94442.00
2023-05-14T08:17:32.393Z,94444.00
2023-05-14T08:18:32.413Z,94442.00
2023-05-14T08:19:32.425Z,94438.00
2023-05-14T08:20:32.452Z,94436.00
2023-05-14T08:21:32.507Z,94440.00
2023-05-14T08:22:32.502Z,94438.00
2023-05-14T08:23:32.536Z,94436.00
2023-05-14T08:24:32.586Z,94436.00
2023-05-14T08:25:32.585Z,94435.00
2023-05-14T08:26:32.592Z,94436.00
2023-05-14T08:27:32.657Z,94438.00
2023-05-14T08:28:32.637Z,94436.00
2023-05-14T08:29:32.715Z,94436.00
2023-05-14T08:30:32.770Z,94436.00
2023-05-14T08:31:32.832Z,94435.00
2023-05-14T08:32:32.880Z,94438.00
2023-05-14T08:33:32.801Z,94433.00
2023-05-14T08:34:32.859Z,94435.00
2023-05-14T08:35:32.826Z,94435.00
2023-05-14T08:36:32.882Z,94435.00
2023-05-14T08:37:32.867Z,94429.00
2023-05-14T08:38:32.921Z,94429.00
2023-05-14T08:39:32.929Z,94431.00
2023-05-14T08:40:32.966Z,94431.00
2023-05-14T08:41:33.005Z,94431.00
2023-05-14T08:42:33.008Z,94423.00
2023-05-14T08:43:33.040Z,94429.00
2023-05-14T08:44:33.151Z,94425.00
2023-05-14T08:45:33.116Z,94425.00
2023-05-14T08:46:33.148Z,94423.00
2023-05-14T08:47:33.193Z,94421.00
2023-05-14T08:48:33.311Z,94423.00
2023-05-14T08:49:33.283Z,94421.00
2023-05-14T08:50:33.271Z,94423.00
2023-05-14T08:51:33.281Z,94423.00
2023-05-14T08:52:33.340Z,94419.00
2023-05-14T08:53:33.383Z,94423.00
2023-05-14T08:54:33.430Z,94421.00
2023-05-14T08:55:33.458Z,94419.00
2023-05-14T08:56:33.479Z,94417.00
2023-05-14T08:57:33.477Z,94417.00
2023-05-14T08:58:33.514Z,94413.00
2023-05-14T08:59:33.547Z,94419.00
2023-05-14T09:00:33.617Z,94415.00
2023-05-14T09:01:33.658Z,94415.00
2023-05-14T09:02:33.663Z,94411.00
2023-05-14T09:03:33.681Z,94413.00
2023-05-14T09:04:33.733Z,94409.00
2023-05-14T09:05:33.732Z,94409.00
2023-05-14T09:06:33.782Z,94411.00
2023-05-14T09:07:33.808Z,94413.00
2023-05-14T09:08:33.898Z,94413.00
2023-05-14T09:09:33.861Z,94411.00
2023-05-14T09:10:33.953Z,94415.00
2023-05-14T09:11:33.946Z,94411.00
2023-05-14T09:12:33.974Z,94411.00
2023-05-14T09:13:34.005Z,94409.00
2023-05-14T09:14:34.080Z,94409.00
2023-05-14T09:15:34.060Z,94409.00
2023-05-14T09:16:34.116Z,94405.00
2023-05-14T09:17:34.156Z,94409.00
2023-05-14T09:18:34.109Z,94407.00
2023-05-14T09:19:34.160Z,94401.00
2023-05-14T09:20:34.163Z,94401.00
2023-05-14T09:21:34.209Z,94399.00
2023-05-14T09:22:34.245Z,94399.00
2023-05-14T09:23:34.279Z,94395.00
2023-05-14T09:24:34.423Z,94397.00
2023-05-14T09:25:34.361Z,94393.00
2023-05-14T09:26:34.369Z,94389.00
2023-05-14T09:27:34.443Z,94387.00
2023-05-14T09:28:34.530Z,94387.00
2023-05-14T09:29:34.501Z,94383.00
2023-05-14T09:30:34.513Z,94385.00
2023-05-14T09:31:34.576Z,94387.00
2023-05-14T09:32:34.664Z,94387.00
2023-05-14T09:33:34.557Z,94385.00
2023-05-14T09:34:34.651Z,94383.00
2023-05-14T09:35:34.673Z,94380.00
2023-05-14T09:36:34.705Z,94378.00
2023-05-14T09:37:34.698Z,94380.00
2023-05-14T09:38:34.785Z,94381.00
2023-05-14T09:39:34.755Z,94378.00
2023-05-14T09:40:34.760Z,94380.00
2023-05-14T09:41:34.804Z,94380.00
2023-05-14T09:42:34.921Z,94376.00
2023-05-14T09:43:34.870Z,94364.00
2023-05-14T09:44:34.931Z,94362.00
2023-05-14T09:45:34.944Z,94360.00
2023-05-14T09:46:34.977Z,94358.00
2023-05-14T09:47:35.110Z,94360.00
2023-05-14T09:48:35.115Z,94356.00
2023-05-14T09:49:35.097Z,94352.00
2023-05-14T09:50:35.111Z,94352.00
2023-05-14T09:51:35.131Z,94346.00
2023-05-14T09:52:35.184Z,94350.00
2023-05-14T09:53:35.187Z,94344.00
2023-05-14T09:54:35.194Z,94342.00
2023-05-14T09:55:35.246Z,94342.00
2023-05-14T09:56:35.256Z,94344.00
2023-05-14T09:57:35.326Z,94342.00
2023-05-14T09:58:35.374Z,94344.00
2023-05-14T09:59:35.429Z,94342.00
2023-05-14T10:00:35.515Z,94340.00
2023-05-14T10:01:35.498Z,94333.00
2023-05-14T10:02:35.589Z,94339.00
2023-05-14T10:03:35.576Z,94339.00
2023-05-14T10:04:35.624Z,94337.00
2023-05-14T10:06:11.009Z,94339.00
2023-05-14T10:07:11.008Z,94337.00
2023-05-14T10:08:11.019Z,94335.00
2023-05-14T10:09:10.984Z,94335.00
2023-05-14T10:10:10.979Z,94335.00
2023-05-14T10:11:10.967Z,94335.00
2023-05-14T10:12:10.977Z,94337.00
2023-05-14T10:13:10.981Z,94339.00
2023-05-14T10:14:10.951Z,94335.00
2023-05-14T10:15:10.963Z,94340.00
2023-05-14T10:16:10.958Z,94339.00
2023-05-14T10:17:10.981Z,94339.00
2023-05-14T10:18:11.019Z,94337.00
2023-05-14T10:19:10.969Z,94337.00
2023-05-14T10:20:10.952Z,94335.00
2023-05-14T10:21:10.917Z,94339.00
2023-05-14T10:22:10.917Z,94335.00
2023-05-14T10:23:10.911Z,94333.00
2023-05-14T10:24:10.875Z,94329.00
2023-05-14T10:25:10.914Z,94325.00
2023-05-14T10:26:10.867Z,94325.00
2023-05-14T10:27:10.869Z,94323.00
2023-05-14T10:28:10.861Z,94323.00
2023-05-14T10:29:10.858Z,94321.00
2023-05-14T10:30:10.858Z,94317.00
2023-05-14T10:31:10.956Z,94315.00
2023-05-14T10:32:11.207Z,94315.00
2023-05-14T10:33:10.849Z,94315.00
2023-05-14T10:34:10.810Z,94319.00
2023-05-14T10:35:10.804Z,94315.00
2023-05-14T10:36:10.832Z,94319.00
2023-05-14T10:37:10.793Z,94319.00
2023-05-14T10:38:10.789Z,94317.00
2023-05-14T10:39:10.814Z,94317.00
2023-05-14T10:40:10.812Z,94315.00
2023-05-14T10:41:10.732Z,94315.00
2023-05-14T10:42:10.753Z,94317.00
2023-05-14T10:43:10.772Z,94317.00
2023-05-14T10:44:10.745Z,94317.00
2023-05-14T10:45:10.735Z,94317.00
2023-05-14T10:46:10.762Z,94315.00
2023-05-14T10:47:10.760Z,94313.00
2023-05-14T10:48:10.864Z,94311.00
2023-05-14T10:49:10.814Z,94313.00
2023-05-14T10:50:10.862Z,94313.00
2023-05-14T10:51:10.927Z,94313.00
2023-05-14T10:52:10.929Z,94311.00
2023-05-14T10:53:11.003Z,94311.00
2023-05-14T10:54:11.036Z,94311.00
2023-05-14T10:55:11.037Z,94307.00
2023-05-14T10:56:11.111Z,94301.00
2023-05-14T10:57:11.119Z,94299.00
2023-05-14T10:58:11.124Z,94297.00
2023-05-14T10:59:11.162Z,94297.00
2023-05-14T11:00:11.187Z,94295.00
2023-05-14T11:01:11.256Z,94291.00
2023-05-14T11:02:11.359Z,94293.00
2023-05-14T11:03:11.388Z,94291.00
2023-05-14T11:04:11.473Z,94288.00
2023-05-14T11:05:11.417Z,94284.00
2023-05-14T11:06:11.418Z,94282.00
2023-05-14T11:07:11.467Z,94282.00
2023-05-14T11:08:11.456Z,94276.00
2023-05-14T11:09:11.498Z,94278.00
2023-05-14T11:10:11.521Z,94278.00
2023-05-14T11:11:11.563Z,94280.00
2023-05-14T11:12:11.562Z,94278.00
2023-05-14T11:13:11.603Z,94276.00
2023-05-14T11:14:11.648Z,94274.00
2023-05-14T11:15:11.649Z,94280.00
2023-05-14T11:16:22.443Z,94278.00
2023-05-14T11:17:12.758Z,94276.00
2023-05-14T11:18:11.708Z,94276.00
2023-05-14T11:19:11.773Z,94272.00
2023-05-14T11:20:11.710Z,94268.00
2023-05-14T11:21:11.638Z,94270.00
2023-05-14T11:22:11.614Z,94268.00
2023-05-14T11:23:11.639Z,94262.00
2023-05-14T11:24:11.635Z,94264.00
2023-05-14T11:25:11.622Z,94260.00
2023-05-14T11:26:11.644Z,94262.00
2023-05-14T11:27:11.636Z,94260.00
2023-05-14T11:28:11.633Z,94262.00
2023-05-14T11:29:11.571Z,94262.00
2023-05-14T11:30:11.642Z,94260.00
2023-05-14T11:31:11.692Z,94260.00
2023-05-14T11:32:11.689Z,94262.00
2023-05-14T11:33:11.773Z,94260.00
2023-05-14T11:34:11.705Z,94258.00
2023-05-14T11:35:11.725Z,94258.00
2023-05-14T11:36:11.789Z,94256.00
2023-05-14T11:37:11.838Z,94258.00
2023-05-14T11:38:11.834Z,94254.00
2023-05-14T11:39:11.851Z,94252.00
2023-05-14T11:40:11.905Z,94252.00
2023-05-14T11:41:11.968Z,94254.00
2023-05-14T11:42:11.968Z,94256.00
2023-05-14T11:43:11.997Z,94254.00
2023-05-14T11:44:12.049Z,94252.00
2023-05-14T11:45:12.051Z,94252.00